Flight Track Log - Related Links

Times and Time Zones

All times are in EDT time to prevent confusion due to time zone crossing. See the N470BC flight status page for this flight to view local times or setup timezone preferences in your user account.


Time Position Orientation Groundspeed Altitude Reporting Facility
EDT Latitude Longitude Course Direction KTS MPH feet Rate Location/Type
Tue 08:54:08 PM 41.4333 -73.1167 350° North 149 171 7,500  Level New York TRACON
Tue 08:54:52 PM 41.4667 -73.1244 350° North 156 180 7,500  Level Boston Center
Tue 08:55:53 PM 41.5167 -73.1303 355° North 182 209 7,500  Level Boston Center
Tue 08:56:53 PM 41.5689 -73.1336 357° North 186 214 7,500  Level Boston Center
Tue 08:57:53 PM 41.6189 -73.1397 355° North 186 214 7,500  Level Boston Center
Tue 08:58:54 PM 41.6731 -73.1433 357° North 187 215 7,500  Level Boston Center
Tue 08:59:54 PM 41.7272 -73.1494 355° North 186 214 7,500  Level Boston Center
Tue 09:00:55 PM 41.7769 -73.1556 355° North 186 214 7,500  Level Boston Center
Tue 09:01:55 PM 41.8311 -73.1589 357° North 188 216 7,500  Level Boston Center
Tue 09:02:56 PM 41.8833 -73.1650 355° North 188 216 7,500  Level Boston Center
Tue 09:03:57 PM 41.9353 -73.1658 359° North 188 216 7,500  Level Boston Center
Tue 09:04:58 PM 41.9853 -73.1719 355° North 184 212 7,500  Level Boston Center
Tue 09:05:59 PM 42.0394 -73.1725 360° North 187 215 7,500  Level Boston Center
Tue 09:06:11 PM 42.0542 -73.1756 351° North 187 215 7,500  Level Boston Center
Tue 09:07:12 PM 42.1042 -73.1817 355° North 187 215 7,500  Level Boston Center
Tue 09:08:13 PM 42.1519 -73.1822 360° North 185 213 7,500  Level Boston Center
Tue 09:09:14 PM 42.2061 -73.1911 353° North 186 214 7,500  Level Boston Center
Tue 09:10:15 PM 42.2583 -73.1919 359° North 184 212 7,500  Level Boston Center
Tue 09:11:15 PM 42.3083 -73.1981 355° North 184 212 7,500  Level Boston Center
Tue 09:12:17 PM 42.3625 -73.2044 355° North 182 209 7,500 -246 Level Boston Center
Tue 09:13:17 PM 42.4144 -73.2050 360° North 193 222 7,000 -605 Descending Boston Center
Tue 09:14:16 PM 42.4728 -73.2142 353° North 200 230 6,300 -650 Descending Boston Center
Tue 09:15:17 PM 42.5292 -73.2147 360° North 203 234 5,700 -595 Descending Boston Center
Tue 09:16:17 PM 42.5853 -73.2239 353° North 200 230 5,100 -545 Descending Boston Center
Tue 09:17:18 PM 42.6394 -73.2275 357° North 198 228 4,600 -537 Descending Boston Center
Tue 09:18:20 PM 42.6956 -73.2311 357° North 200 230 4,000 -581 Descending Boston Center
Tue 09:20:00 PM 42.7969 -73.2326 359° North  Level FlightAware Approximate
Tue 09:27:00 PM 42.8833 -73.2333 North  Level FlightAware Approximate
Tue 09:28:00 PM 42.8912 -73.2461 North  Level Estimated

Login

Don't have an account? Register now (free) for customized features, flight alerts, and more!